createdAt,value
2022-08-30T00:02:26.888Z,23.62
2022-08-30T00:04:55.192Z,23.98
2022-08-30T00:07:22.665Z,23.93
2022-08-30T00:09:50.117Z,23.90
2022-08-30T00:12:23.680Z,24.03
2022-08-30T00:14:51.078Z,23.93
2022-08-30T00:17:19.555Z,24.27
2022-08-30T00:19:46.963Z,24.22
2022-08-30T00:22:16.161Z,23.99
2022-08-30T00:24:43.797Z,24.04
2022-08-30T00:27:11.551Z,24.10
2022-08-30T00:29:38.948Z,24.07
2022-08-30T00:32:06.610Z,24.21
2022-08-30T00:34:34.338Z,24.17
2022-08-30T00:37:02.767Z,23.85
2022-08-30T00:39:30.468Z,23.91
2022-08-30T00:41:57.840Z,24.16
2022-08-30T00:44:25.222Z,23.87
2022-08-30T00:46:52.867Z,23.92
2022-08-30T00:49:20.249Z,24.01
2022-08-30T00:51:47.718Z,23.95
2022-08-30T00:54:15.325Z,23.82
2022-08-30T00:56:42.699Z,23.72
2022-08-30T00:59:10.351Z,23.85
2022-08-30T01:01:38.032Z,23.90
2022-08-30T01:04:05.966Z,23.93
2022-08-30T01:06:34.144Z,23.92
2022-08-30T01:09:02.789Z,23.82
2022-08-30T01:11:30.186Z,23.65
2022-08-30T01:13:57.962Z,23.80
2022-08-30T01:16:25.956Z,24.14
2022-08-30T01:18:56.500Z,24.05
2022-08-30T01:21:42.418Z,23.93
2022-08-30T01:24:10.088Z,23.92
2022-08-30T01:26:37.563Z,24.07
2022-08-30T01:29:08.900Z,23.88
2022-08-30T01:31:37.084Z,23.96
2022-08-30T01:34:05.289Z,23.79
2022-08-30T01:36:32.807Z,23.90
2022-08-30T01:39:00.450Z,24.08
2022-08-30T01:41:31.445Z,23.75
2022-08-30T01:44:01.126Z,23.93
2022-08-30T01:46:36.115Z,23.76
2022-08-30T01:49:05.917Z,23.79
2022-08-30T01:51:33.563Z,23.82
2022-08-30T01:54:01.049Z,23.74
2022-08-30T01:56:28.704Z,23.78
2022-08-30T01:59:00.443Z,23.74
2022-08-30T02:01:30.251Z,23.95
2022-08-30T02:04:00.248Z,23.86
2022-08-30T02:06:28.037Z,23.81
2022-08-30T02:08:55.385Z,23.78
2022-08-30T02:11:23.024Z,23.82
2022-08-30T02:13:50.736Z,23.70
2022-08-30T02:16:19.701Z,23.50
2022-08-30T02:18:47.378Z,23.59
2022-08-30T02:21:14.756Z,23.75
2022-08-30T02:23:42.280Z,23.83
2022-08-30T02:26:10.407Z,23.62
2022-08-30T02:28:42.728Z,23.38
2022-08-30T02:31:20.507Z,23.44
2022-08-30T02:33:50.313Z,23.64
2022-08-30T02:36:18.857Z,23.24
2022-08-30T02:38:46.817Z,23.42
2022-08-30T02:41:14.409Z,23.09
2022-08-30T02:43:42.012Z,23.28
2022-08-30T02:46:09.497Z,23.20
2022-08-30T02:48:36.968Z,23.00
2022-08-30T02:51:09.356Z,23.01
2022-08-30T02:53:39.404Z,23.19
2022-08-30T02:56:07.286Z,23.14
2022-08-30T02:58:34.652Z,22.81
2022-08-30T03:01:02.188Z,22.63
2022-08-30T03:03:29.918Z,22.99
2022-08-30T03:05:57.330Z,22.98
2022-08-30T03:08:24.767Z,22.91
2022-08-30T03:10:52.544Z,23.18
2022-08-30T03:13:19.952Z,22.98
2022-08-30T03:15:50.381Z,22.86
2022-08-30T03:18:18.549Z,22.80
2022-08-30T03:20:54.373Z,22.54
2022-08-30T03:23:22.862Z,22.86
2022-08-30T03:25:50.418Z,22.87
2022-08-30T03:28:17.792Z,23.04
2022-08-30T03:30:45.482Z,22.51
2022-08-30T03:33:12.878Z,22.71
2022-08-30T03:35:40.672Z,22.67
2022-08-30T03:38:08.331Z,22.79
2022-08-30T03:40:36.147Z,22.71
2022-08-30T03:43:03.968Z,22.81
2022-08-30T03:45:33.264Z,23.03
2022-08-30T03:48:02.392Z,22.84
2022-08-30T03:50:30.481Z,22.84
2022-08-30T03:52:58.544Z,22.76
2022-08-30T03:55:28.164Z,22.29
2022-08-30T03:57:55.708Z,22.31
2022-08-30T04:00:23.382Z,22.52
2022-08-30T04:02:51.030Z,22.56
2022-08-30T04:05:18.672Z,22.73
2022-08-30T04:07:46.172Z,22.51
2022-08-30T04:10:13.863Z,22.63
2022-08-30T04:12:43.227Z,22.51
2022-08-30T04:15:12.591Z,22.55
2022-08-30T04:17:40.334Z,22.68
2022-08-30T04:20:08.294Z,22.88
2022-08-30T04:22:36.610Z,22.76
2022-08-30T04:25:05.227Z,22.66
2022-08-30T04:27:32.684Z,22.75
2022-08-30T04:30:00.200Z,22.92
2022-08-30T04:32:27.866Z,23.25
2022-08-30T04:34:58.611Z,23.00
2022-08-30T04:37:26.025Z,22.90
2022-08-30T04:39:57.497Z,22.95
2022-08-30T04:42:24.969Z,22.71
2022-08-30T04:44:52.350Z,22.81
2022-08-30T04:47:19.980Z,22.78
2022-08-30T04:49:47.355Z,22.71
2022-08-30T04:52:14.770Z,22.72
2022-08-30T04:54:42.452Z,22.88
2022-08-30T04:57:09.833Z,23.13
2022-08-30T04:59:38.585Z,23.22
2022-08-30T05:02:06.286Z,23.30
2022-08-30T05:04:33.677Z,23.44
2022-08-30T05:07:01.269Z,23.73
2022-08-30T05:09:28.900Z,23.37
2022-08-30T05:11:56.294Z,23.39
2022-08-30T05:14:24.103Z,23.01
2022-08-30T05:16:51.792Z,23.66
2022-08-30T05:19:19.146Z,24.06
2022-08-30T05:21:46.526Z,24.30
2022-08-30T05:24:14.194Z,24.19
2022-08-30T05:26:41.635Z,24.26
2022-08-30T05:29:09.048Z,24.41
2022-08-30T05:31:37.120Z,24.47
2022-08-30T05:34:04.677Z,24.62
2022-08-30T05:36:34.192Z,24.66
2022-08-30T05:39:01.816Z,24.68
2022-08-30T05:41:33.110Z,24.78
2022-08-30T05:44:01.677Z,24.86
2022-08-30T05:49:01.954Z,25.29
2022-08-30T05:51:30.046Z,25.31
2022-08-30T05:53:58.162Z,25.42
2022-08-30T05:56:34.293Z,23.68
2022-08-30T05:59:02.580Z,24.94
2022-08-30T06:01:33.143Z,25.32
2022-08-30T06:04:03.947Z,25.26
2022-08-30T06:06:34.456Z,24.98
2022-08-30T06:09:05.209Z,25.42
2022-08-30T06:11:33.617Z,25.47
2022-08-30T06:14:01.300Z,25.60
2022-08-30T06:16:29.180Z,25.99
2022-08-30T06:18:57.227Z,25.71
2022-08-30T06:21:30.081Z,25.94
2022-08-30T06:23:58.120Z,25.98
2022-08-30T06:26:25.980Z,26.56
2022-08-30T06:28:53.409Z,24.52
2022-08-30T06:31:21.497Z,25.52
2022-08-30T06:33:49.195Z,26.27
2022-08-30T06:36:21.412Z,26.13
2022-08-30T06:38:55.862Z,26.27
2022-08-30T06:41:26.570Z,25.88
2022-08-30T06:43:54.505Z,26.00
2022-08-30T06:46:24.420Z,26.37
2022-08-30T06:48:53.372Z,26.58
2022-08-30T06:51:37.651Z,26.69
2022-08-30T06:54:10.773Z,26.12
2022-08-30T06:56:40.347Z,26.12
2022-08-30T06:59:10.405Z,26.42
2022-08-30T07:01:37.891Z,26.84
2022-08-30T07:04:05.538Z,27.02
2022-08-30T07:06:33.074Z,27.33
2022-08-30T07:09:00.606Z,27.88
2022-08-30T07:11:36.972Z,28.44
2022-08-30T07:14:04.493Z,28.31
2022-08-30T07:16:32.335Z,28.90
2022-08-30T07:19:00.450Z,29.41
2022-08-30T07:21:35.936Z,29.57
2022-08-30T07:24:03.912Z,29.27
2022-08-30T07:26:36.547Z,28.64
2022-08-30T07:29:04.268Z,28.66
2022-08-30T07:31:33.026Z,29.01
2022-08-30T07:34:00.408Z,28.63
2022-08-30T07:36:28.155Z,29.32
2022-08-30T07:38:55.633Z,29.58
2022-08-30T07:41:35.509Z,28.70
2022-08-30T07:44:03.532Z,29.14
2022-08-30T07:46:30.982Z,29.28
2022-08-30T07:48:59.689Z,29.01
2022-08-30T07:51:27.464Z,29.10
2022-08-30T07:53:55.108Z,29.57
2022-08-30T07:56:22.769Z,29.76
2022-08-30T07:58:50.612Z,30.30
2022-08-30T08:01:18.297Z,30.61
2022-08-30T08:03:46.828Z,30.77
2022-08-30T08:06:14.928Z,30.90
2022-08-30T08:08:42.414Z,31.25
2022-08-30T08:11:13.079Z,31.33
2022-08-30T08:13:52.942Z,31.15
2022-08-30T08:16:23.488Z,31.38
2022-08-30T08:18:51.740Z,31.42
2022-08-30T08:21:19.399Z,31.61
2022-08-30T08:23:47.036Z,31.71
2022-08-30T08:26:14.561Z,31.55
2022-08-30T08:28:42.134Z,31.43
2022-08-30T08:31:27.149Z,31.50
2022-08-30T08:34:02.885Z,31.50
2022-08-30T08:36:32.038Z,31.22
2022-08-30T08:38:59.648Z,31.36
2022-08-30T08:41:34.902Z,31.53
2022-08-30T08:44:07.915Z,31.31
2022-08-30T08:46:45.302Z,29.40
2022-08-30T08:49:13.258Z,31.04
2022-08-30T08:51:59.464Z,31.80
2022-08-30T08:54:50.012Z,31.84
2022-08-30T08:57:20.267Z,31.72
2022-08-30T08:59:54.172Z,32.15
2022-08-30T09:02:29.248Z,32.42
2022-08-30T09:04:59.804Z,32.82
2022-08-30T09:07:29.902Z,34.11
2022-08-30T09:09:58.171Z,36.02
2022-08-30T09:12:25.550Z,36.72
2022-08-30T09:15:02.801Z,38.84
2022-08-30T09:17:30.475Z,40.42
2022-08-30T09:19:59.245Z,40.80
2022-08-30T09:22:39.831Z,42.87
2022-08-30T09:25:10.945Z,42.91
2022-08-30T09:27:40.306Z,44.19
2022-08-30T09:30:14.383Z,44.04
2022-08-30T09:33:09.413Z,43.25
2022-08-30T09:35:46.574Z,40.30
2022-08-30T09:38:23.253Z,41.31
2022-08-30T09:40:52.524Z,41.49
2022-08-30T09:43:33.547Z,43.17
2022-08-30T09:46:01.084Z,44.68
2022-08-30T09:48:34.338Z,44.80
2022-08-30T09:51:12.520Z,43.43
2022-08-30T09:54:17.081Z,43.26
2022-08-30T09:56:51.558Z,42.61
2022-08-30T09:59:40.115Z,42.44
2022-08-30T10:02:30.310Z,41.13
2022-08-30T10:05:13.168Z,40.69
2022-08-30T10:07:46.531Z,40.71
2022-08-30T10:10:28.339Z,39.42
2022-08-30T10:13:05.571Z,36.65
2022-08-30T10:15:43.635Z,37.70
2022-08-30T10:18:32.312Z,36.54
2022-08-30T10:21:13.502Z,34.92
2022-08-30T10:23:52.872Z,34.73
2022-08-30T10:26:39.446Z,33.97
2022-08-30T10:29:10.845Z,33.26
2022-08-30T10:31:51.768Z,32.36
2022-08-30T10:34:45.362Z,32.33
2022-08-30T10:37:27.250Z,31.86
2022-08-30T10:40:00.640Z,30.96
2022-08-30T10:42:33.825Z,30.66
2022-08-30T10:45:13.702Z,30.86
2022-08-30T10:48:08.529Z,30.90
2022-08-30T10:50:45.849Z,30.39
2022-08-30T10:53:23.970Z,30.34
2022-08-30T10:56:20.400Z,29.76
2022-08-30T10:58:48.126Z,29.89
2022-08-30T11:01:59.446Z,29.64
2022-08-30T11:04:45.534Z,29.76
2022-08-30T11:07:37.808Z,29.67
2022-08-30T11:10:18.328Z,29.70
2022-08-30T11:13:06.473Z,29.81
2022-08-30T11:15:36.019Z,29.51
2022-08-30T11:18:09.920Z,29.44
2022-08-30T11:20:54.115Z,29.43
2022-08-30T11:23:36.053Z,29.29
2022-08-30T11:26:08.460Z,29.65
2022-08-30T11:28:41.219Z,29.28
2022-08-30T11:31:31.664Z,29.09
2022-08-30T11:33:59.572Z,29.38
2022-08-30T11:36:28.589Z,29.57
2022-08-30T11:39:05.800Z,29.71
2022-08-30T11:41:47.973Z,29.63
2022-08-30T11:44:24.477Z,29.54
2022-08-30T11:46:58.589Z,29.81
2022-08-30T11:49:50.181Z,30.11
2022-08-30T11:52:30.182Z,30.25
2022-08-30T11:55:15.853Z,30.68
2022-08-30T11:58:14.520Z,30.77
2022-08-30T12:00:51.334Z,30.36
2022-08-30T12:03:21.853Z,30.41
2022-08-30T12:06:00.570Z,29.92
2022-08-30T12:08:28.189Z,29.57
2022-08-30T12:11:10.973Z,30.10
2022-08-30T12:13:44.596Z,29.92
2022-08-30T12:16:21.750Z,29.70
2022-08-30T12:18:57.124Z,29.59
2022-08-30T12:21:33.394Z,29.40
2022-08-30T12:24:25.246Z,29.43
2022-08-30T12:26:52.698Z,29.72
2022-08-30T12:29:27.936Z,29.92
2022-08-30T12:32:00.422Z,30.00
2022-08-30T12:34:32.091Z,29.73
2022-08-30T12:37:13.148Z,29.72
2022-08-30T12:39:42.835Z,29.75
2022-08-30T12:42:12.179Z,29.78
2022-08-30T12:44:46.200Z,29.76
2022-08-30T12:47:14.699Z,29.71
2022-08-30T12:49:42.453Z,29.72
2022-08-30T12:52:31.797Z,29.75
2022-08-30T12:55:22.675Z,29.77
2022-08-30T12:58:00.888Z,29.73
2022-08-30T13:00:34.087Z,29.60
2022-08-30T13:03:24.010Z,29.63
2022-08-30T13:05:53.129Z,29.62
2022-08-30T13:08:22.461Z,29.03
2022-08-30T13:11:08.123Z,29.45
2022-08-30T13:13:37.403Z,29.33
2022-08-30T13:16:17.930Z,29.34
2022-08-30T13:18:46.339Z,29.38
2022-08-30T13:21:21.794Z,29.63
2022-08-30T13:23:50.609Z,29.78
2022-08-30T13:26:20.439Z,29.91
2022-08-30T13:28:53.805Z,28.78
2022-08-30T13:31:21.435Z,29.19
2022-08-30T13:33:53.034Z,29.47
2022-08-30T13:36:32.090Z,29.60
2022-08-30T13:39:00.821Z,29.77
2022-08-30T13:41:33.815Z,29.88
2022-08-30T13:44:12.975Z,29.98
2022-08-30T13:46:43.040Z,30.17
2022-08-30T13:52:19.821Z,29.80
2022-08-30T13:54:50.280Z,29.99
2022-08-30T14:00:12.221Z,30.01
2022-08-30T14:02:45.381Z,29.98
2022-08-30T14:05:47.181Z,29.97
2022-08-30T14:08:04.057Z,30.11
2022-08-30T14:10:32.710Z,30.07
2022-08-30T14:13:08.379Z,30.06
2022-08-30T14:15:39.025Z,30.25
2022-08-30T14:18:06.919Z,30.32
2022-08-30T14:20:38.402Z,30.40
2022-08-30T14:23:09.904Z,30.52
2022-08-30T14:25:40.883Z,30.53
2022-08-30T14:28:09.627Z,30.58
2022-08-30T14:30:38.841Z,30.52
2022-08-30T14:33:06.854Z,30.90
2022-08-30T14:35:36.574Z,31.07
2022-08-30T14:38:04.130Z,31.29
2022-08-30T14:40:31.865Z,30.95
2022-08-30T14:42:59.533Z,30.94
2022-08-30T14:45:26.917Z,30.77
2022-08-30T14:47:56.689Z,30.58
2022-08-30T14:50:24.363Z,30.09
2022-08-30T14:52:55.424Z,30.38
2022-08-30T14:55:22.897Z,30.59
2022-08-30T14:57:51.283Z,30.52
2022-08-30T15:00:19.106Z,30.26
2022-08-30T15:02:47.183Z,29.81
2022-08-30T15:05:15.097Z,30.02
2022-08-30T15:07:42.537Z,29.73
2022-08-30T15:10:12.265Z,29.84
2022-08-30T15:12:41.863Z,29.92
2022-08-30T15:15:10.341Z,29.74
2022-08-30T15:17:37.716Z,29.51
2022-08-30T15:20:10.450Z,29.28
2022-08-30T15:22:38.231Z,28.86
2022-08-30T15:25:06.414Z,29.27
2022-08-30T15:27:33.758Z,29.55
2022-08-30T15:30:01.298Z,29.26
2022-08-30T15:32:28.969Z,29.61
2022-08-30T15:35:00.233Z,29.33
2022-08-30T15:37:27.676Z,29.20
2022-08-30T15:39:58.246Z,29.35
2022-08-30T15:42:26.233Z,29.20
2022-08-30T15:44:54.089Z,29.36
2022-08-30T15:47:22.350Z,29.24
2022-08-30T15:50:00.312Z,29.25
2022-08-30T15:52:28.110Z,29.09
2022-08-30T15:54:55.632Z,28.68
2022-08-30T15:57:23.355Z,28.80
2022-08-30T15:59:51.333Z,28.94
2022-08-30T16:02:18.964Z,28.98
2022-08-30T16:04:46.627Z,28.53
2022-08-30T16:07:14.148Z,28.48
2022-08-30T16:09:41.617Z,28.67
2022-08-30T16:12:09.844Z,28.94
2022-08-30T16:14:37.628Z,28.68
2022-08-30T16:17:05.213Z,28.89
2022-08-30T16:19:32.877Z,28.70
2022-08-30T16:22:00.283Z,28.46
2022-08-30T16:24:27.638Z,28.57
2022-08-30T16:26:55.313Z,28.62
2022-08-30T16:29:22.753Z,28.06
2022-08-30T16:31:50.214Z,28.60
2022-08-30T16:34:18.769Z,27.71
2022-08-30T16:36:47.447Z,27.91
2022-08-30T16:39:15.061Z,27.61
2022-08-30T16:41:44.330Z,27.56
2022-08-30T16:44:12.490Z,27.70
2022-08-30T16:46:41.272Z,27.96
2022-08-30T16:49:09.162Z,28.19
2022-08-30T16:51:36.641Z,28.43
2022-08-30T16:54:05.033Z,27.72
2022-08-30T16:56:32.889Z,27.20
2022-08-30T17:01:48.734Z,27.88
2022-08-30T17:04:19.487Z,27.33
2022-08-30T17:09:36.208Z,27.98
2022-08-30T17:12:04.436Z,27.69
2022-08-30T17:14:31.922Z,27.07
2022-08-30T17:17:01.322Z,27.55
2022-08-30T17:19:29.311Z,27.59
2022-08-30T17:21:58.037Z,27.66
2022-08-30T17:24:26.732Z,27.71
2022-08-30T17:26:54.582Z,27.93
2022-08-30T17:29:21.979Z,27.93
2022-08-30T17:31:50.880Z,27.75
2022-08-30T17:34:21.249Z,27.73
2022-08-30T17:36:50.196Z,27.69
2022-08-30T17:39:17.611Z,27.53
2022-08-30T17:44:33.429Z,27.47
2022-08-30T17:47:01.215Z,27.42
2022-08-30T17:49:29.368Z,27.28
2022-08-30T17:51:57.309Z,27.09
2022-08-30T17:54:29.374Z,27.17
2022-08-30T17:56:57.414Z,26.89
2022-08-30T17:59:25.758Z,26.70
2022-08-30T18:01:54.110Z,26.84
2022-08-30T18:04:24.829Z,26.91
2022-08-30T18:06:52.915Z,26.80
2022-08-30T18:09:20.753Z,26.83
2022-08-30T18:11:48.790Z,26.72
2022-08-30T18:14:16.337Z,26.53
2022-08-30T18:16:53.503Z,26.52
2022-08-30T18:19:25.701Z,26.64
2022-08-30T18:21:53.355Z,26.45
2022-08-30T18:24:21.128Z,26.12
2022-08-30T18:26:48.853Z,26.41
2022-08-30T18:29:18.982Z,26.32
2022-08-30T18:31:58.210Z,26.03
2022-08-30T18:34:25.604Z,26.09
2022-08-30T18:36:53.705Z,26.04
2022-08-30T18:39:22.002Z,26.25
2022-08-30T18:41:50.931Z,25.89
2022-08-30T18:44:28.212Z,25.72
2022-08-30T18:47:09.850Z,25.77
2022-08-30T18:49:38.524Z,25.62
2022-08-30T18:52:07.304Z,25.76
2022-08-30T18:54:38.395Z,25.84
2022-08-30T18:57:06.099Z,25.64
2022-08-30T18:59:36.584Z,25.72
2022-08-30T19:02:09.453Z,25.89
2022-08-30T19:04:37.554Z,25.79
2022-08-30T19:07:05.922Z,25.40
2022-08-30T19:09:34.664Z,25.61
2022-08-30T19:12:03.718Z,25.66
2022-08-30T19:14:36.773Z,25.40
2022-08-30T19:17:07.117Z,25.42
2022-08-30T19:19:36.865Z,25.51
2022-08-30T19:22:14.105Z,25.72
2022-08-30T19:24:43.437Z,25.33
2022-08-30T19:27:10.905Z,25.43
2022-08-30T19:29:39.867Z,25.43
2022-08-30T19:32:07.978Z,25.24
2022-08-30T19:34:37.654Z,25.18
2022-08-30T19:37:05.334Z,25.14
2022-08-30T19:39:32.696Z,25.09
2022-08-30T19:42:00.138Z,25.01
2022-08-30T19:44:28.012Z,25.00
2022-08-30T19:46:55.394Z,25.02
2022-08-30T19:49:23.927Z,25.10
2022-08-30T19:51:51.661Z,25.08
2022-08-30T19:54:19.689Z,25.06
2022-08-30T19:56:48.200Z,24.76
2022-08-30T19:59:18.304Z,24.75
2022-08-30T20:01:46.049Z,24.89
2022-08-30T20:04:14.298Z,25.01
2022-08-30T20:06:42.474Z,24.88
2022-08-30T20:09:10.890Z,24.75
2022-08-30T20:11:38.967Z,24.76
2022-08-30T20:14:07.150Z,24.84
2022-08-30T20:16:37.232Z,24.67
2022-08-30T20:19:06.336Z,24.59
2022-08-30T20:21:34.056Z,24.84
2022-08-30T20:24:03.365Z,24.60
2022-08-30T20:24:23.217Z,27.51
2022-08-30T20:24:23.330Z,27.83
2022-08-30T20:24:24.897Z,27.54
2022-08-30T20:26:34.340Z,24.42
2022-08-30T20:29:02.664Z,24.34
2022-08-30T20:31:30.121Z,24.41
2022-08-30T20:33:57.819Z,24.44
2022-08-30T20:36:25.230Z,24.41
2022-08-30T20:38:52.607Z,24.42
2022-08-30T20:41:20.237Z,24.38
2022-08-30T20:43:48.859Z,24.40
2022-08-30T20:46:17.411Z,24.45
2022-08-30T20:48:45.462Z,24.37
2022-08-30T20:51:15.426Z,23.85
2022-08-30T20:53:43.089Z,24.12
2022-08-30T20:56:15.332Z,24.29
2022-08-30T20:58:42.843Z,24.30
2022-08-30T21:01:10.692Z,24.16
2022-08-30T21:03:38.548Z,24.27
2022-08-30T21:06:07.424Z,24.17
2022-08-30T21:08:34.852Z,24.15
2022-08-30T21:11:02.571Z,24.01
2022-08-30T21:13:30.345Z,23.85
2022-08-30T21:16:00.633Z,23.92
2022-08-30T21:18:36.200Z,23.84
2022-08-30T21:21:10.371Z,23.71
2022-08-30T21:23:38.016Z,23.91
2022-08-30T21:26:09.806Z,23.87
2022-08-30T21:28:37.368Z,24.05
2022-08-30T21:31:13.374Z,23.88
2022-08-30T21:33:40.924Z,24.06
2022-08-30T21:36:27.778Z,23.75
2022-08-30T21:38:57.448Z,23.46
2022-08-30T21:41:28.777Z,23.21
2022-08-30T21:43:57.921Z,23.44
2022-08-30T21:46:25.893Z,23.68
2022-08-30T21:48:53.809Z,23.55
2022-08-30T21:51:21.208Z,23.74
2022-08-30T21:53:48.795Z,23.80
2022-08-30T21:56:21.707Z,23.55
2022-08-30T21:58:49.755Z,23.52
2022-08-30T22:01:23.594Z,23.16
2022-08-30T22:03:52.388Z,23.64
2022-08-30T22:06:19.747Z,23.20
2022-08-30T22:08:47.748Z,23.23
2022-08-30T22:11:21.538Z,23.28
2022-08-30T22:13:49.837Z,23.24
2022-08-30T22:16:18.000Z,23.45
2022-08-30T22:18:45.762Z,23.33
2022-08-30T22:21:14.375Z,23.05
2022-08-30T22:23:41.763Z,23.29
2022-08-30T22:26:09.793Z,23.36
2022-08-30T22:28:37.210Z,23.37
2022-08-30T22:31:06.574Z,23.31
2022-08-30T22:33:34.365Z,23.25
2022-08-30T22:36:13.020Z,23.06
2022-08-30T22:38:40.756Z,23.26
2022-08-30T22:41:16.541Z,23.38
2022-08-30T22:43:44.048Z,23.12
2022-08-30T22:46:11.591Z,23.08
2022-08-30T22:48:40.512Z,22.71
2022-08-30T22:51:08.250Z,22.66
2022-08-30T22:53:36.022Z,23.00
2022-08-30T22:56:09.013Z,22.68
2022-08-30T22:58:36.701Z,22.91
2022-08-30T23:01:04.946Z,22.74
2022-08-30T23:03:35.967Z,22.95
2022-08-30T23:08:30.878Z,23.02
2022-08-30T23:10:58.330Z,22.87
2022-08-30T23:13:26.116Z,22.98
2022-08-30T23:15:53.519Z,22.79
2022-08-30T23:18:20.864Z,22.90
2022-08-30T23:20:48.502Z,22.84
2022-08-30T23:23:34.681Z,22.78
2022-08-30T23:26:21.045Z,22.83
2022-08-30T23:29:07.038Z,23.01
2022-08-30T23:31:53.539Z,23.08
2022-08-30T23:34:39.917Z,22.56
2022-08-30T23:37:26.491Z,22.53
2022-08-30T23:40:12.497Z,22.59
2022-08-30T23:43:00.422Z,22.91
2022-08-30T23:45:46.686Z,22.79
2022-08-30T23:48:33.220Z,22.69
2022-08-30T23:51:21.820Z,22.58
2022-08-30T23:54:08.728Z,22.58
2022-08-30T23:56:56.222Z,22.58
2022-08-30T23:59:42.716Z,22.90
